Time;durP1;ratioP1;P1;durP2;ratioP2;P2;SDS_P1;SDS_P2;PMS_P1;PMS_P2;Temp;Humidity;BMP_temperature;BMP_pressure;BME280_temperature;BME280_humidity;BME280_pressure;Samples;Min_cycle;Max_cycle;Signal;HPM_P1;HPM_P2
2023/12/15 05:05:22;;;;;;;0.30;0.30;;;5.50;99.90;;;;;;5995228;23;20293;31
2023/12/15 05:07:48;;;;;;;0.30;0.30;;;5.50;99.90;;;;;;4859720;29;20228;-63
2023/12/15 05:10:13;;;;;;;0.30;0.30;;;5.50;99.90;;;;;;4861726;29;20191;-64
2023/12/15 05:12:39;;;;;;;0.30;0.30;;;5.50;99.90;;;;;;4861847;29;20220;-64
2023/12/15 05:15:05;;;;;;;0.30;0.30;;;5.50;99.90;;;;;;4861420;29;20173;-64
2023/12/15 05:17:31;;;;;;;0.40;0.40;;;5.50;99.90;;;;;;4861926;29;20500;-63
2023/12/15 05:19:57;;;;;;;0.40;0.40;;;5.50;99.90;;;;;;4861637;29;20171;-64
2023/12/15 05:22:22;;;;;;;0.50;0.50;;;5.50;99.90;;;;;;4861630;29;20271;-63
2023/12/15 05:24:48;;;;;;;0.30;0.30;;;5.50;99.90;;;;;;4861554;29;20639;-64
2023/12/15 05:27:14;;;;;;;0.40;0.40;;;5.50;99.90;;;;;;4861671;29;20187;-63
2023/12/15 05:29:45;;;;;;;0.30;0.30;;;5.50;99.90;;;;;;4861762;29;20178;-63
2023/12/15 05:32:11;;;;;;;0.35;0.35;;;5.60;99.90;;;;;;4860930;29;20467;-63
2023/12/15 05:34:37;;;;;;;0.30;0.30;;;5.60;99.90;;;;;;4860556;29;20601;-71
2023/12/15 05:37:03;;;;;;;0.33;0.33;;;5.60;99.90;;;;;;4860962;29;20227;-63
2023/12/15 05:39:28;;;;;;;0.30;0.30;;;5.60;99.90;;;;;;4861297;29;20448;-63
2023/12/15 05:41:54;;;;;;;0.40;0.40;;;5.60;99.90;;;;;;4860041;29;20295;-63
2023/12/15 05:44:20;;;;;;;0.30;0.30;;;5.70;99.90;;;;;;4860964;29;20718;-63
2023/12/15 05:46:45;;;;;;;0.30;0.30;;;5.70;99.90;;;;;;4861054;29;20196;-64
2023/12/15 05:49:11;;;;;;;0.30;0.30;;;5.70;99.90;;;;;;4861159;29;20172;-63
2023/12/15 05:51:38;;;;;;;0.30;0.30;;;5.70;99.90;;;;;;4861119;29;20663;-64
2023/12/15 05:54:04;;;;;;;0.30;0.30;;;5.70;99.90;;;;;;4860902;29;20779;-64
2023/12/15 05:56:30;;;;;;;0.30;0.30;;;5.70;99.90;;;;;;4861205;29;20194;-63
2023/12/15 05:58:56;;;;;;;0.37;0.37;;;5.70;99.90;;;;;;4861201;29;20694;-65
2023/12/15 06:01:22;;;;;;;0.40;0.40;;;5.70;99.90;;;;;;4860991;29;20187;-64
2023/12/15 06:03:48;;;;;;;0.45;0.45;;;5.70;99.90;;;;;;4860989;29;20190;-63
2023/12/15 06:06:14;;;;;;;0.30;0.30;;;5.70;99.90;;;;;;4860209;29;20211;-64
2023/12/15 06:08:39;;;;;;;0.30;0.30;;;5.70;99.90;;;;;;4861022;29;20427;-63
2023/12/15 06:11:05;;;;;;;0.30;0.30;;;5.70;99.90;;;;;;4860952;29;20186;-63
2023/12/15 06:13:31;;;;;;;0.30;0.30;;;5.70;99.90;;;;;;4860714;29;20205;-63
2023/12/15 06:15:56;;;;;;;0.30;0.30;;;5.70;99.90;;;;;;4860462;29;20542;-64
2023/12/15 06:18:22;;;;;;;0.30;0.30;;;5.70;99.90;;;;;;4860936;29;20514;-64
2023/12/15 06:20:48;;;;;;;0.30;0.30;;;5.80;99.90;;;;;;4862164;29;20230;-62
2023/12/15 06:23:14;;;;;;;0.30;0.30;;;5.80;99.90;;;;;;4864631;29;20186;-63
2023/12/15 06:37:04;;;;;;;0.40;0.40;;;5.80;99.90;;;;;;5105545;27;20684;-64
2023/12/15 06:39:30;;;;;;;0.33;0.33;;;6.10;99.90;;;;;;5090599;28;20182;-63
2023/12/15 06:41:56;;;;;;;0.67;0.67;;;6.10;99.90;;;;;;5089909;28;20586;-65
2023/12/15 06:44:22;;;;;;;0.30;0.30;;;6.10;99.90;;;;;;5088947;28;20573;-64
2023/12/15 06:46:47;;;;;;;0.70;0.57;;;6.10;99.90;;;;;;5089662;28;20191;-64
2023/12/15 06:49:13;;;;;;;0.40;0.40;;;6.10;99.90;;;;;;5089460;28;20527;-65
2023/12/15 06:51:42;;;;;;;0.40;0.40;;;6.10;99.90;;;;;;5088698;28;20666;-64
2023/12/15 06:54:09;;;;;;;0.35;0.35;;;6.10;99.90;;;;;;5090417;28;20168;-64
2023/12/15 06:56:38;;;;;;;0.30;0.30;;;6.10;99.90;;;;;;5089068;28;20201;-65
2023/12/15 06:59:03;;;;;;;0.30;0.30;;;6.10;99.90;;;;;;5089648;28;20182;-65
2023/12/15 07:01:29;;;;;;;0.30;0.30;;;6.10;99.90;;;;;;5074867;28;20184;-65
2023/12/15 07:03:54;;;;;;;0.40;0.40;;;6.20;99.90;;;;;;5070047;28;20172;-65
2023/12/15 07:06:20;;;;;;;0.30;0.30;;;6.20;99.90;;;;;;5070618;28;20223;-64
2023/12/15 07:08:50;;;;;;;0.40;0.40;;;6.20;99.90;;;;;;5082972;28;20528;-65
2023/12/15 07:11:16;;;;;;;0.40;0.40;;;6.10;99.90;;;;;;5089479;28;20159;-65
2023/12/15 07:13:41;;;;;;;0.30;0.30;;;6.00;99.90;;;;;;5089956;28;20202;-64
2023/12/15 07:16:08;;;;;;;0.30;0.30;;;6.00;99.90;;;;;;5089415;28;20172;-65
2023/12/15 07:18:34;;;;;;;0.32;0.32;;;6.10;99.90;;;;;;5089609;28;20192;-65
2023/12/15 07:21:00;;;;;;;0.30;0.30;;;6.10;99.90;;;;;;5089832;28;20174;-66
2023/12/15 07:23:25;;;;;;;0.30;0.30;;;6.10;99.90;;;;;;5087993;28;20643;-65
2023/12/15 07:25:51;;;;;;;0.30;0.30;;;6.10;99.90;;;;;;5088570;28;20241;-65
2023/12/15 07:28:17;;;;;;;0.33;0.33;;;6.10;99.90;;;;;;5089275;28;20517;-65
2023/12/15 07:30:42;;;;;;;0.30;0.30;;;6.10;99.90;;;;;;5088191;28;20186;-66
2023/12/15 07:33:08;;;;;;;1.00;1.00;;;6.10;99.90;;;;;;5089527;28;20173;-64
2023/12/15 07:35:34;;;;;;;0.40;0.40;;;6.10;99.90;;;;;;5087427;28;20219;-65
2023/12/15 07:37:59;;;;;;;0.30;0.30;;;6.10;99.90;;;;;;5060914;28;20283;-66
2023/12/15 07:40:25;;;;;;;0.37;0.37;;;6.20;99.90;;;;;;5055758;28;20247;-65
2023/12/15 07:42:51;;;;;;;0.30;0.30;;;6.20;99.90;;;;;;5072334;28;20204;-65
2023/12/15 07:45:16;;;;;;;0.40;0.40;;;6.20;99.90;;;;;;5075497;28;20566;-65
2023/12/15 07:47:42;;;;;;;0.30;0.30;;;6.30;99.90;;;;;;5072748;28;20199;-66
2023/12/15 07:50:07;;;;;;;0.40;0.40;;;6.30;99.90;;;;;;5074449;28;20503;-65
2023/12/15 07:52:33;;;;;;;0.30;0.30;;;6.30;99.90;;;;;;5075542;28;20172;-65
2023/12/15 07:54:58;;;;;;;0.30;0.30;;;6.30;99.90;;;;;;5075563;28;20551;-66
2023/12/15 07:57:24;;;;;;;0.40;0.40;;;6.30;99.90;;;;;;5075302;28;20591;-65
2023/12/15 07:59:50;;;;;;;0.30;0.30;;;6.40;99.90;;;;;;5075667;28;20226;-66
2023/12/15 08:02:19;;;;;;;0.30;0.30;;;6.40;99.90;;;;;;5075517;28;20173;-65
2023/12/15 08:04:45;;;;;;;0.35;0.35;;;6.40;99.90;;;;;;5075537;28;20264;-65
2023/12/15 08:07:11;;;;;;;0.30;0.30;;;6.40;99.90;;;;;;5075214;28;20185;-65
2023/12/15 08:09:37;;;;;;;0.40;0.40;;;6.40;99.90;;;;;;5075598;28;20171;-65
2023/12/15 08:12:03;;;;;;;0.40;0.40;;;6.40;99.90;;;;;;5075629;28;20218;-64
2023/12/15 08:14:28;;;;;;;0.30;0.30;;;6.40;99.90;;;;;;5073942;28;20199;-65
2023/12/15 08:16:54;;;;;;;1.07;0.97;;;6.50;99.90;;;;;;5074733;28;20450;-65
2023/12/15 08:19:20;;;;;;;0.30;0.30;;;6.50;99.90;;;;;;5075431;28;20654;-65
2023/12/15 08:21:48;;;;;;;0.30;0.30;;;6.50;99.90;;;;;;5075057;28;20828;-65
2023/12/15 08:24:14;;;;;;;0.75;0.75;;;6.50;99.90;;;;;;5074948;28;20406;-65
2023/12/15 08:26:39;;;;;;;0.40;0.40;;;6.50;99.90;;;;;;5074591;28;20196;-65
2023/12/15 08:29:05;;;;;;;0.30;0.30;;;6.60;99.90;;;;;;5075208;28;20167;-66
2023/12/15 08:31:30;;;;;;;0.40;0.40;;;6.60;99.90;;;;;;5075088;28;20628;-67
2023/12/15 08:33:56;;;;;;;0.20;0.20;;;6.50;99.90;;;;;;5074965;28;20173;-65
2023/12/15 08:36:22;;;;;;;1.07;0.80;;;6.50;99.90;;;;;;5074334;28;20651;-65
2023/12/15 08:38:47;;;;;;;0.40;0.40;;;6.60;99.90;;;;;;5073523;28;20214;-66
2023/12/15 08:41:13;;;;;;;0.30;0.30;;;6.60;99.90;;;;;;5074908;28;20161;-66
2023/12/15 08:43:39;;;;;;;0.30;0.30;;;6.70;99.90;;;;;;5075080;28;20195;-66
2023/12/15 08:46:05;;;;;;;0.30;0.30;;;6.60;99.90;;;;;;5074154;28;20196;-67
2023/12/15 08:48:30;;;;;;;0.40;0.40;;;6.60;99.90;;;;;;5073719;28;20264;-67
2023/12/15 08:50:56;;;;;;;0.43;0.43;;;6.60;99.90;;;;;;5074805;28;20924;-67
2023/12/15 08:53:22;;;;;;;0.30;0.30;;;6.60;99.90;;;;;;5074566;28;20172;-66
2023/12/15 08:55:48;;;;;;;0.30;0.30;;;6.60;99.90;;;;;;5074227;28;20636;-66
2023/12/15 08:58:14;;;;;;;0.30;0.30;;;6.70;99.90;;;;;;5074524;28;20192;-65
2023/12/15 09:00:39;;;;;;;0.30;0.30;;;6.80;99.90;;;;;;5074535;28;20180;-66
2023/12/15 09:03:05;;;;;;;0.50;0.50;;;6.80;99.90;;;;;;5074304;28;20247;-66
2023/12/15 09:05:32;;;;;;;0.40;0.40;;;6.80;99.90;;;;;;5074082;28;20227;-66
2023/12/15 09:07:59;;;;;;;0.40;0.40;;;6.70;99.90;;;;;;5074122;28;20189;-66
2023/12/15 09:10:26;;;;;;;0.40;0.40;;;6.70;99.90;;;;;;5074447;28;20165;-66
2023/12/15 09:12:52;;;;;;;0.30;0.30;;;6.70;99.90;;;;;;5074239;28;20161;-66
2023/12/15 09:15:18;;;;;;;0.30;0.30;;;6.80;99.90;;;;;;5073038;28;20206;-66
2023/12/15 09:17:45;;;;;;;4.93;1.90;;;6.90;99.90;;;;;;5073697;28;20617;-66
2023/12/15 09:20:12;;;;;;;0.35;0.35;;;7.00;99.90;;;;;;5073909;28;20891;-66
2023/12/15 09:22:38;;;;;;;0.30;0.30;;;7.00;99.90;;;;;;5072949;28;20707;-66
2023/12/15 09:25:05;;;;;;;0.40;0.40;;;7.00;99.90;;;;;;5074319;28;20235;-66
2023/12/15 09:27:31;;;;;;;0.30;0.30;;;7.00;99.90;;;;;;5072265;28;20192;-66
2023/12/15 09:29:56;;;;;;;0.30;0.30;;;7.00;99.90;;;;;;5072710;28;20651;-67
2023/12/15 09:32:22;;;;;;;0.40;0.40;;;7.00;99.90;;;;;;5074249;28;20169;-66
2023/12/15 09:34:48;;;;;;;0.33;0.33;;;7.10;99.90;;;;;;5072497;28;20632;-67
2023/12/15 09:37:13;;;;;;;0.73;0.73;;;7.10;99.90;;;;;;5073594;28;20664;-67
2023/12/15 09:39:39;;;;;;;0.30;0.30;;;7.10;99.90;;;;;;5073805;28;20252;-66
2023/12/15 09:42:05;;;;;;;0.30;0.30;;;7.10;99.90;;;;;;5073927;28;20169;-66
2023/12/15 09:44:31;;;;;;;0.40;0.40;;;7.20;99.90;;;;;;5073814;28;20187;-66
2023/12/15 09:46:58;;;;;;;0.93;0.93;;;7.20;99.90;;;;;;5073143;28;20902;-65
2023/12/15 09:49:25;;;;;;;0.30;0.30;;;7.30;99.90;;;;;;5072363;28;20453;-66
2023/12/15 09:51:51;;;;;;;0.30;0.30;;;7.40;99.90;;;;;;5073682;28;20188;-66
2023/12/15 09:54:18;;;;;;;0.30;0.30;;;7.30;99.90;;;;;;5072451;28;20200;-65
2023/12/15 09:56:44;;;;;;;0.30;0.30;;;7.40;99.90;;;;;;5071601;28;20200;-66
2023/12/15 09:59:10;;;;;;;0.50;0.50;;;7.40;99.90;;;;;;5073277;28;20522;-65
2023/12/15 10:01:37;;;;;;;0.30;0.30;;;7.40;99.90;;;;;;5073496;28;20528;-67
2023/12/15 10:04:04;;;;;;;0.30;0.30;;;7.50;99.90;;;;;;5073406;28;20173;-65
2023/12/15 10:06:33;;;;;;;0.38;0.38;;;7.50;99.90;;;;;;5072961;28;20712;-66
2023/12/15 10:08:59;;;;;;;0.40;0.40;;;7.60;99.90;;;;;;5073595;28;20177;-66
2023/12/15 10:11:27;;;;;;;0.30;0.30;;;7.60;99.90;;;;;;5073528;28;20245;-66
2023/12/15 10:13:54;;;;;;;0.30;0.30;;;7.70;99.90;;;;;;5073377;28;20165;-66
2023/12/15 10:16:20;;;;;;;0.30;0.30;;;7.80;99.90;;;;;;5073053;28;20173;-67
2023/12/15 10:18:46;;;;;;;0.30;0.30;;;7.90;99.90;;;;;;5072090;28;20188;-67
2023/12/15 10:21:12;;;;;;;0.30;0.30;;;8.00;99.90;;;;;;5073409;28;20174;-67
2023/12/15 10:23:37;;;;;;;0.40;0.40;;;8.00;99.90;;;;;;5073369;28;20179;-66
2023/12/15 10:26:06;;;;;;;0.30;0.30;;;8.20;99.90;;;;;;5072845;28;20451;-65
2023/12/15 10:28:39;;;;;;;0.30;0.30;;;8.30;99.90;;;;;;5073066;28;20197;-67
2023/12/15 10:31:08;;;;;;;0.30;0.30;;;8.50;99.90;;;;;;5073292;28;20234;-67
2023/12/15 10:33:35;;;;;;;0.30;0.30;;;8.60;99.90;;;;;;5071709;28;20194;-66
2023/12/15 10:36:01;;;;;;;0.50;0.50;;;8.80;99.90;;;;;;5072735;28;20510;-65
2023/12/15 10:38:29;;;;;;;0.30;0.30;;;8.90;99.90;;;;;;5072939;28;20197;-66
2023/12/15 10:40:56;;;;;;;0.30;0.20;;;9.00;99.90;;;;;;5072299;28;20416;-65
2023/12/15 10:43:22;;;;;;;0.30;0.30;;;9.10;99.90;;;;;;5074939;28;20621;-69
2023/12/15 10:45:50;;;;;;;0.35;0.35;;;9.20;99.90;;;;;;5074688;28;20887;-65
2023/12/15 10:48:17;;;;;;;0.83;0.80;;;9.20;99.90;;;;;;5072801;28;20202;-66
2023/12/15 10:50:45;;;;;;;0.30;0.30;;;9.30;99.90;;;;;;5075210;28;20550;-67
2023/12/15 10:53:13;;;;;;;0.50;0.50;;;9.20;99.90;;;;;;5075263;28;20890;-66
2023/12/15 10:55:42;;;;;;;0.30;0.30;;;9.30;99.90;;;;;;5072558;28;20408;-66
2023/12/15 10:58:08;;;;;;;0.30;0.30;;;9.30;99.90;;;;;;5072865;28;20247;-66
2023/12/15 11:00:36;;;;;;;0.30;0.30;;;9.40;99.90;;;;;;5072895;28;20459;-65
2023/12/15 11:03:05;;;;;;;0.45;0.45;;;9.40;99.90;;;;;;5071525;28;20208;-68
2023/12/15 11:05:32;;;;;;;0.43;0.43;;;9.40;99.90;;;;;;5071031;28;20209;-66
2023/12/15 11:07:59;;;;;;;0.30;0.30;;;9.30;99.90;;;;;;5072488;28;20436;-67
2023/12/15 11:10:25;;;;;;;0.30;0.30;;;9.20;99.90;;;;;;5072697;28;20404;-66
2023/12/15 11:12:52;;;;;;;0.30;0.30;;;9.20;99.90;;;;;;5074138;28;20495;-65
2023/12/15 11:15:19;;;;;;;0.30;0.30;;;9.20;99.90;;;;;;5076294;28;20465;-65
2023/12/15 11:18:02;;;;;;;0.30;0.30;;;9.20;99.90;;;;;;5075858;28;20236;-66
2023/12/15 11:20:35;;;;;;;0.32;0.32;;;9.10;99.90;;;;;;5075786;28;20434;-66
2023/12/15 11:23:11;;;;;;;0.32;0.32;;;9.20;99.90;;;;;;5076223;28;20173;-66
2023/12/15 11:25:37;;;;;;;0.40;0.40;;;9.00;99.90;;;;;;5075668;28;20301;-65
2023/12/15 11:28:08;;;;;;;0.30;0.30;;;9.00;99.90;;;;;;5075769;28;20268;-65
2023/12/15 11:30:37;;;;;;;0.30;0.30;;;9.00;99.90;;;;;;5076079;28;20360;-64
2023/12/15 11:33:24;;;;;;;0.30;0.30;;;9.10;99.90;;;;;;5075894;28;20248;-66
2023/12/15 11:36:02;;;;;;;0.30;0.30;;;9.10;99.90;;;;;;5075311;28;20186;-66
2023/12/15 11:38:28;;;;;;;0.30;0.30;;;9.20;99.90;;;;;;5075616;28;20209;-67
2023/12/15 11:40:54;;;;;;;1.13;0.60;;;9.20;99.90;;;;;;5075893;28;20260;-67
2023/12/15 11:43:20;;;;;;;0.30;0.20;;;9.20;99.90;;;;;;5075519;28;20740;-66
2023/12/15 11:45:48;;;;;;;0.30;0.30;;;9.10;99.90;;;;;;5073912;28;20202;-67
2023/12/15 11:48:14;;;;;;;0.30;0.30;;;9.10;99.90;;;;;;5063905;28;20453;-66
2023/12/15 11:50:43;;;;;;;0.55;0.55;;;9.10;99.90;;;;;;5055489;28;20228;-67
2023/12/15 11:53:09;;;;;;;0.30;0.30;;;9.00;99.90;;;;;;5055943;28;20166;-68
2023/12/15 11:55:36;;;;;;;0.30;0.30;;;9.10;99.90;;;;;;5055287;28;20659;-67
2023/12/15 11:58:14;;;;;;;0.40;0.40;;;9.00;99.90;;;;;;5055450;28;20201;-67
2023/12/15 12:00:39;;;;;;;0.30;0.30;;;9.00;99.90;;;;;;5055651;28;20806;-65
2023/12/15 12:03:05;;;;;;;0.30;0.30;;;8.90;99.90;;;;;;5055504;28;20201;-66
2023/12/15 12:05:31;;;;;;;0.40;0.40;;;8.90;99.90;;;;;;5054225;28;20228;-66
2023/12/15 12:07:58;;;;;;;0.30;0.30;;;8.80;99.90;;;;;;5055263;28;20281;-66
2023/12/15 12:10:31;;;;;;;0.30;0.20;;;8.80;99.90;;;;;;5055488;28;20734;-66
2023/12/15 12:12:58;;;;;;;0.32;0.32;;;8.80;99.90;;;;;;5055447;28;20167;-67
2023/12/15 12:15:24;;;;;;;0.30;0.30;;;8.80;99.90;;;;;;5055579;28;20583;-67
2023/12/15 12:17:51;;;;;;;0.30;0.20;;;8.80;99.90;;;;;;5055196;28;20268;-66
2023/12/15 12:20:16;;;;;;;0.30;0.30;;;8.90;99.90;;;;;;5054970;28;20293;-66
2023/12/15 12:22:43;;;;;;;0.30;0.30;;;8.90;99.90;;;;;;5055259;28;20630;-67
2023/12/15 12:25:16;;;;;;;1.20;1.20;;;8.90;99.90;;;;;;5055084;28;20229;-65
2023/12/15 12:27:42;;;;;;;0.30;0.30;;;9.00;99.90;;;;;;5054652;28;20194;-65
2023/12/15 12:30:16;;;;;;;0.35;0.35;;;9.00;99.90;;;;;;5055173;28;20171;-66
2023/12/15 12:32:41;;;;;;;0.30;0.30;;;9.10;99.90;;;;;;5054908;28;20321;-67
2023/12/15 12:35:08;;;;;;;0.30;0.30;;;9.10;99.90;;;;;;5053613;28;20226;-67
2023/12/15 12:37:34;;;;;;;0.30;0.30;;;9.10;99.90;;;;;;5054385;28;20217;-67
2023/12/15 12:40:03;;;;;;;0.30;0.30;;;9.00;99.90;;;;;;5054872;28;20420;-66
2023/12/15 12:42:29;;;;;;;0.30;0.30;;;9.00;99.90;;;;;;5054922;28;20177;-66
2023/12/15 12:44:55;;;;;;;0.30;0.20;;;8.90;99.90;;;;;;5054584;28;20193;-66
2023/12/15 12:47:22;;;;;;;0.30;0.30;;;8.90;99.90;;;;;;5052891;28;20198;-66
2023/12/15 12:49:48;;;;;;;0.30;0.30;;;8.90;99.90;;;;;;5054609;28;20173;-65
2023/12/15 12:52:14;;;;;;;0.30;0.30;;;8.80;99.90;;;;;;5054616;28;20568;-66
2023/12/15 12:54:40;;;;;;;0.30;0.30;;;8.90;99.90;;;;;;5054564;28;20171;-67
2023/12/15 12:57:07;;;;;;;0.35;0.35;;;8.80;99.90;;;;;;5054131;28;20181;-69
2023/12/15 12:59:33;;;;;;;0.30;0.30;;;8.80;99.90;;;;;;5054526;28;20166;-66
2023/12/15 13:01:59;;;;;;;0.30;0.30;;;8.70;99.90;;;;;;5054498;28;20503;-66
2023/12/15 13:04:25;;;;;;;0.30;0.30;;;8.70;99.90;;;;;;5052996;28;20635;-65
2023/12/15 13:06:52;;;;;;;0.65;0.65;;;8.70;99.90;;;;;;5052677;28;20440;-67
2023/12/15 13:09:18;;;;;;;0.30;0.30;;;8.60;99.90;;;;;;5054139;28;20354;-64
2023/12/15 13:11:45;;;;;;;0.30;0.30;;;8.60;99.90;;;;;;5054281;28;20190;-65
2023/12/15 13:14:11;;;;;;;0.30;0.30;;;8.60;99.90;;;;;;5054261;28;20748;-67
2023/12/15 13:16:37;;;;;;;0.30;0.30;;;8.60;99.90;;;;;;5052371;28;20204;-66
2023/12/15 13:19:03;;;;;;;0.30;0.30;;;8.60;99.90;;;;;;5054288;28;20624;-68
2023/12/15 13:21:28;;;;;;;0.30;0.30;;;8.60;99.90;;;;;;5053934;28;20177;-68
2023/12/15 13:23:54;;;;;;;0.30;0.30;;;8.60;99.90;;;;;;5054084;28;20244;-68
2023/12/15 13:26:20;;;;;;;0.30;0.30;;;8.50;99.90;;;;;;5052194;28;20569;-69
2023/12/15 13:28:45;;;;;;;0.30;0.30;;;8.50;99.90;;;;;;5054099;28;20170;-67
2023/12/15 13:31:11;;;;;;;0.30;0.30;;;8.50;99.90;;;;;;5052339;28;20170;-68
2023/12/15 13:33:38;;;;;;;0.30;0.30;;;8.40;99.90;;;;;;5053775;28;20208;-68
2023/12/15 13:36:04;;;;;;;0.30;0.30;;;8.40;99.90;;;;;;5051528;28;20197;-67
2023/12/15 13:38:30;;;;;;;0.30;0.30;;;8.50;99.90;;;;;;5052533;28;20197;-67
2023/12/15 13:40:57;;;;;;;0.30;0.30;;;8.40;99.90;;;;;;5053695;28;20407;-68
2023/12/15 13:43:26;;;;;;;0.30;0.30;;;8.40;99.90;;;;;;5053772;28;20170;-67
2023/12/15 13:45:53;;;;;;;0.30;0.30;;;8.40;99.90;;;;;;5053326;28;20196;-66
2023/12/15 13:48:19;;;;;;;0.30;0.30;;;8.50;99.90;;;;;;5053617;28;20215;-67
2023/12/15 13:50:45;;;;;;;0.60;0.60;;;8.50;99.90;;;;;;5054027;28;20671;-67
2023/12/15 13:53:10;;;;;;;0.30;0.30;;;8.50;99.90;;;;;;5053680;28;20759;-68
2023/12/15 13:55:37;;;;;;;0.40;0.40;;;8.50;99.90;;;;;;5053280;28;20443;-67
2023/12/15 13:58:03;;;;;;;0.40;0.40;;;8.50;99.90;;;;;;5053395;28;20268;-67
2023/12/15 14:00:28;;;;;;;0.30;0.30;;;8.50;99.90;;;;;;5053447;28;20166;-67
2023/12/15 14:02:54;;;;;;;0.30;0.30;;;8.40;99.90;;;;;;5053632;28;20170;-68
2023/12/15 14:05:19;;;;;;;0.30;0.30;;;8.40;99.90;;;;;;5051902;28;20208;-67
2023/12/15 14:07:45;;;;;;;0.30;0.30;;;8.40;99.90;;;;;;5052875;28;20281;-67
2023/12/15 14:10:11;;;;;;;0.30;0.30;;;8.40;99.90;;;;;;5053464;28;20294;-68
2023/12/15 14:12:36;;;;;;;0.30;0.30;;;8.30;99.90;;;;;;5053360;28;20166;-67
2023/12/15 14:15:06;;;;;;;0.30;0.30;;;8.40;99.90;;;;;;5052271;28;20319;-66
2023/12/15 14:17:32;;;;;;;0.30;0.30;;;8.40;99.90;;;;;;5052849;28;20186;-66
2023/12/15 14:19:57;;;;;;;0.30;0.20;;;8.30;99.90;;;;;;5053604;28;20169;-66
2023/12/15 14:22:23;;;;;;;0.30;0.30;;;8.40;99.90;;;;;;5053190;28;20181;-67
2023/12/15 14:24:49;;;;;;;0.30;0.30;;;8.30;99.90;;;;;;5053087;28;20193;-67
2023/12/15 14:27:15;;;;;;;0.50;0.50;;;8.30;99.90;;;;;;5052789;28;20648;-67
2023/12/15 14:29:40;;;;;;;0.33;0.33;;;8.30;99.90;;;;;;5053318;28;20165;-67
2023/12/15 14:32:06;;;;;;;0.30;0.30;;;8.30;99.90;;;;;;5053241;28;20412;-67
2023/12/15 14:34:32;;;;;;;0.30;0.30;;;8.20;99.90;;;;;;5053138;28;20408;-67
2023/12/15 14:36:58;;;;;;;0.30;0.30;;;8.20;99.90;;;;;;5052499;28;20460;-67
2023/12/15 14:39:23;;;;;;;0.30;0.30;;;8.20;99.90;;;;;;5052843;28;20169;-67
2023/12/15 14:41:49;;;;;;;0.30;0.30;;;8.10;99.90;;;;;;5053097;28;20169;-67
2023/12/15 14:44:15;;;;;;;0.37;0.37;;;8.10;99.90;;;;;;5052850;28;20197;-66
2023/12/15 14:46:41;;;;;;;0.30;0.30;;;8.10;99.90;;;;;;5053385;28;20204;-66
2023/12/15 14:49:06;;;;;;;0.30;0.30;;;8.10;99.90;;;;;;5056922;28;20170;-67
2023/12/15 14:51:32;;;;;;;0.30;0.30;;;8.10;99.90;;;;;;5057021;28;20174;-68
2023/12/15 14:53:58;;;;;;;0.30;0.30;;;8.00;99.90;;;;;;5056997;28;20170;-68
2023/12/15 14:56:23;;;;;;;0.30;0.30;;;8.00;99.90;;;;;;5055185;28;20594;-66
2023/12/15 14:58:49;;;;;;;0.30;0.30;;;8.00;99.90;;;;;;5056568;28;20169;-66
2023/12/15 15:01:15;;;;;;;0.30;0.30;;;8.00;99.90;;;;;;5056676;28;20172;-68
2023/12/15 15:03:48;;;;;;;0.30;0.30;;;7.90;99.90;;;;;;5056596;28;20172;-67
2023/12/15 15:06:16;;;;;;;0.35;0.35;;;8.00;99.90;;;;;;5055959;28;20560;-66
2023/12/15 15:08:45;;;;;;;0.30;0.30;;;8.00;99.90;;;;;;5056610;28;20529;-66
2023/12/15 15:11:11;;;;;;;0.30;0.30;;;8.00;99.90;;;;;;5056576;28;20537;-67
2023/12/15 15:13:38;;;;;;;0.30;0.30;;;7.90;99.90;;;;;;5056688;28;20170;-67
2023/12/15 15:16:04;;;;;;;0.30;0.30;;;7.90;99.90;;;;;;5056295;28;20200;-66
2023/12/15 15:18:32;;;;;;;0.30;0.30;;;7.80;99.90;;;;;;5060822;28;20621;-68
2023/12/15 15:20:58;;;;;;;0.30;0.30;;;7.80;99.90;;;;;;5061830;28;20256;-66
2023/12/15 15:23:23;;;;;;;0.30;0.30;;;7.70;99.90;;;;;;5074584;28;20609;-67
2023/12/15 15:25:49;;;;;;;0.30;0.30;;;7.70;99.90;;;;;;5074128;28;20204;-68
2023/12/15 15:28:14;;;;;;;0.30;0.30;;;7.60;99.90;;;;;;5075557;28;20191;-67
2023/12/15 15:30:42;;;;;;;0.30;0.30;;;7.60;99.90;;;;;;5074389;28;20598;-67
2023/12/15 15:33:08;;;;;;;0.30;0.30;;;7.60;99.90;;;;;;5076131;28;20222;-69
2023/12/15 15:35:33;;;;;;;0.30;0.30;;;7.50;99.90;;;;;;5075526;28;20199;-67
2023/12/15 15:37:59;;;;;;;0.30;0.30;;;7.50;99.90;;;;;;5074024;28;20201;-67
2023/12/15 15:40:25;;;;;;;0.30;0.30;;;7.40;99.90;;;;;;5075842;28;20180;-67
2023/12/15 15:42:51;;;;;;;0.30;0.30;;;7.40;99.90;;;;;;5074592;28;20176;-68
2023/12/15 15:45:20;;;;;;;0.30;0.30;;;7.40;99.90;;;;;;5075809;28;20586;-69
2023/12/15 15:47:46;;;;;;;0.32;0.32;;;7.40;99.90;;;;;;5075442;28;20425;-68
2023/12/15 15:50:12;;;;;;;0.30;0.30;;;7.40;99.90;;;;;;5075843;28;20157;-67
2023/12/15 15:52:38;;;;;;;0.40;0.40;;;7.40;99.90;;;;;;5074390;28;20196;-66
2023/12/15 15:55:07;;;;;;;0.30;0.30;;;7.40;99.90;;;;;;5075286;28;20180;-68
2023/12/15 15:57:32;;;;;;;0.30;0.30;;;7.30;99.90;;;;;;5074673;28;20532;-68
2023/12/15 15:59:58;;;;;;;0.30;0.30;;;7.30;99.90;;;;;;5075607;28;20243;-67
2023/12/15 16:02:23;;;;;;;0.30;0.30;;;7.30;99.90;;;;;;5075386;28;20275;-68
2023/12/15 16:04:49;;;;;;;0.30;0.30;;;7.30;99.90;;;;;;5074042;28;20267;-66
2023/12/15 16:07:15;;;;;;;0.40;0.40;;;7.30;99.90;;;;;;5070824;28;20197;-68
2023/12/15 16:09:41;;;;;;;0.37;0.37;;;7.30;99.90;;;;;;5068023;28;20256;-67
2023/12/15 16:12:08;;;;;;;0.30;0.30;;;7.40;99.90;;;;;;5075471;28;20267;-66
2023/12/15 16:14:34;;;;;;;0.30;0.30;;;7.40;99.90;;;;;;5075194;28;20460;-67
2023/12/15 16:17:00;;;;;;;0.30;0.30;;;7.40;99.90;;;;;;5074646;28;20548;-66
2023/12/15 16:19:26;;;;;;;0.30;0.30;;;7.40;99.90;;;;;;5075062;28;20165;-66
2023/12/15 16:21:51;;;;;;;0.30;0.30;;;7.40;99.90;;;;;;5074946;28;20732;-66
2023/12/15 16:24:17;;;;;;;0.40;0.40;;;7.40;99.90;;;;;;5073929;28;20926;-66
2023/12/15 16:26:43;;;;;;;0.30;0.30;;;7.40;99.90;;;;;;5074305;28;20208;-66
2023/12/15 16:29:09;;;;;;;0.30;0.30;;;7.40;99.90;;;;;;5074604;28;20410;-68
2023/12/15 16:31:35;;;;;;;0.30;0.30;;;7.40;99.90;;;;;;5074716;28;20172;-66
2023/12/15 16:34:02;;;;;;;0.30;0.30;;;7.40;99.90;;;;;;5074824;28;20898;-66
2023/12/15 16:36:28;;;;;;;0.30;0.30;;;7.40;99.90;;;;;;5074439;28;20518;-66
2023/12/15 16:38:53;;;;;;;0.30;0.30;;;7.40;99.90;;;;;;5074688;28;20266;-67
2023/12/15 16:41:26;;;;;;;0.47;0.47;;;7.50;99.90;;;;;;5074732;28;20485;-66
2023/12/15 16:43:55;;;;;;;0.90;0.90;;;7.50;99.90;;;;;;5074882;28;20662;-67
2023/12/15 16:46:21;;;;;;;0.30;0.30;;;7.50;99.90;;;;;;5073673;28;20249;-66
2023/12/15 16:48:53;;;;;;;0.30;0.30;;;7.50;99.90;;;;;;5074494;28;20172;-68
2023/12/15 16:51:35;;;;;;;0.30;0.30;;;7.50;99.90;;;;;;5074985;28;20185;-67
2023/12/15 16:54:01;;;;;;;0.30;0.30;;;7.50;99.90;;;;;;5074430;28;20173;-67
2023/12/15 16:56:27;;;;;;;0.50;0.50;;;7.50;99.90;;;;;;5074553;28;20187;-67
2023/12/15 16:58:52;;;;;;;0.30;0.30;;;7.50;99.90;;;;;;5074752;28;20165;-67
2023/12/15 17:01:18;;;;;;;0.40;0.40;;;7.50;99.90;;;;;;5073684;28;20192;-67
2023/12/15 17:03:45;;;;;;;0.20;0.20;;;7.50;99.90;;;;;;5073620;28;20180;-67
2023/12/15 17:06:13;;;;;;;0.63;0.63;;;7.50;99.90;;;;;;5072742;28;20454;-67
2023/12/15 17:08:43;;;;;;;0.40;0.40;;;7.50;99.90;;;;;;5073799;28;20524;-68
2023/12/15 17:11:12;;;;;;;0.30;0.30;;;7.60;99.90;;;;;;5072591;28;20204;-67
2023/12/15 17:13:37;;;;;;;0.30;0.30;;;7.50;99.90;;;;;;5074264;28;20161;-66
2023/12/15 17:16:04;;;;;;;0.30;0.30;;;7.50;99.90;;;;;;5073324;28;20188;-71
2023/12/15 17:18:31;;;;;;;0.40;0.40;;;7.50;99.90;;;;;;5071003;28;20560;-68
2023/12/15 17:20:57;;;;;;;0.30;0.30;;;7.50;99.90;;;;;;5073465;28;20188;-67
2023/12/15 17:23:22;;;;;;;0.40;0.40;;;7.40;99.90;;;;;;5073678;28;20173;-65
2023/12/15 17:25:48;;;;;;;0.50;0.50;;;7.40;99.90;;;;;;5073213;28;20233;-66
2023/12/15 17:28:13;;;;;;;0.40;0.40;;;7.30;99.90;;;;;;5073628;28;20180;-64
2023/12/15 17:30:39;;;;;;;0.40;0.40;;;7.20;99.90;;;;;;5072994;28;20628;-64
2023/12/15 17:33:04;;;;;;;0.30;0.30;;;7.20;99.90;;;;;;5072531;28;20583;-63
2023/12/15 17:35:30;;;;;;;0.60;0.60;;;7.10;99.90;;;;;;5073202;28;20187;-63
2023/12/15 17:37:56;;;;;;;1.67;1.67;;;7.00;99.90;;;;;;5072473;28;20248;-64
2023/12/15 17:40:26;;;;;;;0.30;0.30;;;7.00;99.90;;;;;;5073196;28;20180;-65
2023/12/15 17:42:54;;;;;;;0.82;0.82;;;7.00;99.90;;;;;;5068587;28;20275;-62
2023/12/15 17:45:19;;;;;;;0.40;0.40;;;7.00;99.90;;;;;;5055475;28;20207;-62
2023/12/15 17:47:45;;;;;;;0.30;0.30;;;6.90;99.90;;;;;;5072775;28;20184;-62
2023/12/15 17:50:12;;;;;;;0.57;0.57;;;6.90;99.90;;;;;;5071421;28;20237;-62
2023/12/15 17:52:37;;;;;;;0.30;0.30;;;6.90;99.90;;;;;;5073137;28;20644;-62
2023/12/15 17:55:03;;;;;;;0.30;0.30;;;6.80;99.90;;;;;;5072948;28;20195;-64
2023/12/15 17:57:29;;;;;;;0.30;0.30;;;6.80;99.90;;;;;;5073031;28;20196;-62
2023/12/15 17:59:55;;;;;;;0.30;0.30;;;6.80;99.90;;;;;;5072093;28;20663;-64
2023/12/15 18:02:24;;;;;;;0.40;0.40;;;6.70;99.90;;;;;;5072942;28;20294;-65
2023/12/15 18:04:49;;;;;;;0.60;0.60;;;6.70;99.90;;;;;;5072867;28;20191;-64
2023/12/15 18:07:15;;;;;;;0.50;0.50;;;6.70;99.90;;;;;;5072731;28;20180;-69
2023/12/15 18:09:40;;;;;;;0.30;0.30;;;6.70;99.90;;;;;;5072930;28;20211;-70